createdAt,value
2018-03-31T00:01:06.517Z,12.94
2018-03-31T00:02:16.585Z,12.8
2018-03-31T00:03:26.651Z,12.88
2018-03-31T00:04:36.512Z,12.91
2018-03-31T00:05:46.314Z,12.99
2018-03-31T00:06:56.366Z,13.09
2018-03-31T00:08:06.445Z,13.19
2018-03-31T00:09:15.992Z,13.29
2018-03-31T00:10:26.099Z,13.31
2018-03-31T00:11:36.168Z,13.36
2018-03-31T00:12:45.969Z,13.44
2018-03-31T00:13:56.053Z,13.5
2018-03-31T00:15:06.118Z,13.62
2018-03-31T00:16:15.969Z,13.58
2018-03-31T00:17:25.578Z,13.62
2018-03-31T00:18:35.642Z,13.58
2018-03-31T00:19:45.448Z,13.73
2018-03-31T00:20:55.509Z,13.78
2018-03-31T00:22:05.572Z,13.88
2018-03-31T00:23:15.634Z,13.91
2018-03-31T00:24:25.192Z,13.94
2018-03-31T00:25:34.462Z,14.05
2018-03-31T00:26:44.265Z,14.03
2018-03-31T00:27:54.080Z,14.16
2018-03-31T00:29:03.903Z,14.21
2018-03-31T00:30:13.760Z,14.19
2018-03-31T00:31:23.846Z,14.3
2018-03-31T00:32:33.395Z,14.34
2018-03-31T00:33:43.486Z,14.42
2018-03-31T00:34:53.286Z,14.44
2018-03-31T00:36:02.842Z,14.44
2018-03-31T00:37:12.908Z,14.46
2018-03-31T00:38:22.981Z,14.57
2018-03-31T00:39:33.052Z,14.64
2018-03-31T00:40:43.124Z,14.59
2018-03-31T00:41:52.937Z,14.74
2018-03-31T00:43:03.024Z,14.66
2018-03-31T00:44:13.140Z,14.66
2018-03-31T00:45:22.683Z,14.64
2018-03-31T00:46:32.754Z,14.75
2018-03-31T00:47:42.887Z,14.67
2018-03-31T00:48:52.701Z,14.7
2018-03-31T00:50:02.242Z,14.75
2018-03-31T00:51:11.792Z,14.79
2018-03-31T00:52:21.862Z,14.85
2018-03-31T00:53:31.654Z,14.74
2018-03-31T00:54:41.461Z,14.85
2018-03-31T00:55:51.539Z,14.79
2018-03-31T00:57:01.078Z,14.8
2018-03-31T00:58:11.136Z,14.83
2018-03-31T00:59:20.427Z,14.83
2018-03-31T01:00:29.979Z,14.8
2018-03-31T01:01:40.042Z,14.74
2018-03-31T01:02:50.110Z,14.74
2018-03-31T01:03:59.911Z,14.79
2018-03-31T01:05:09.713Z,14.87
2018-03-31T01:06:19.499Z,14.89
2018-03-31T01:07:29.570Z,14.95
2018-03-31T01:08:39.377Z,14.94
2018-03-31T01:09:49.185Z,14.87
2018-03-31T01:10:59.020Z,14.9
2018-03-31T01:12:08.868Z,14.94
2018-03-31T01:13:18.675Z,14.87
2018-03-31T01:14:28.477Z,14.89
2018-03-31T01:15:38.017Z,14.89
2018-03-31T01:16:47.559Z,14.87
2018-03-31T01:17:57.105Z,15.01
2018-03-31T01:19:06.652Z,15.07
2018-03-31T01:20:16.719Z,15.1
2018-03-31T01:21:26.523Z,15.01
2018-03-31T01:22:36.572Z,15.02
2018-03-31T01:23:46.638Z,15.08
2018-03-31T01:24:56.170Z,15.04
2018-03-31T01:26:05.974Z,15.01
2018-03-31T01:27:15.777Z,15.08
2018-03-31T01:28:25.627Z,15.16
2018-03-31T01:29:35.693Z,15.22
2018-03-31T01:30:45.531Z,15.16
2018-03-31T01:31:55.580Z,15.23
2018-03-31T01:33:05.628Z,15.26
2018-03-31T01:34:15.495Z,15.22
2018-03-31T01:35:25.574Z,15.26
2018-03-31T01:36:35.444Z,15.3
2018-03-31T01:37:45.252Z,15.3
2018-03-31T01:38:55.041Z,15.26
2018-03-31T01:40:05.103Z,15.25
2018-03-31T01:41:14.902Z,15.34
2018-03-31T01:42:24.990Z,15.25
2018-03-31T01:43:34.802Z,15.25
2018-03-31T01:44:44.652Z,15.26
2018-03-31T01:45:54.236Z,15.23
2018-03-31T01:47:04.290Z,15.22
2018-03-31T01:48:14.359Z,15.33
2018-03-31T01:49:23.908Z,15.26
2018-03-31T01:50:33.463Z,15.26
2018-03-31T01:51:43.542Z,15.26
2018-03-31T01:52:53.345Z,15.25
2018-03-31T01:54:03.144Z,15.25
2018-03-31T01:55:12.678Z,15.2
2018-03-31T01:56:22.477Z,15.15
2018-03-31T01:57:32.275Z,15.16
2018-03-31T01:58:41.543Z,15.1
2018-03-31T01:59:51.328Z,15.15
2018-03-31T02:01:01.407Z,15.12
2018-03-31T02:02:11.473Z,15.15
2018-03-31T02:03:21.645Z,15.12
2018-03-31T02:04:31.465Z,15.15
2018-03-31T02:05:41.548Z,15.15
2018-03-31T02:06:51.094Z,15.13
2018-03-31T02:08:01.166Z,15.05
2018-03-31T02:09:11.297Z,15.1
2018-03-31T02:10:21.381Z,15.12
2018-03-31T02:11:31.191Z,15.1
2018-03-31T02:12:40.745Z,15.1
2018-03-31T02:13:50.836Z,15.1
2018-03-31T02:15:00.392Z,15.05
2018-03-31T02:16:10.201Z,15.02
2018-03-31T02:17:20.104Z,15.01
2018-03-31T02:18:29.974Z,15.13
2018-03-31T02:19:40.048Z,15.08
2018-03-31T02:20:50.151Z,15.08
2018-03-31T02:22:00.398Z,15.02
2018-03-31T02:23:10.385Z,15.05
2018-03-31T02:24:20.184Z,15.1
2018-03-31T02:25:30.013Z,15.19
2018-03-31T02:26:40.125Z,15.13
2018-03-31T02:27:49.924Z,15.12
2018-03-31T02:28:59.997Z,15.22
2018-03-31T02:30:10.079Z,15.15
2018-03-31T02:31:19.631Z,15.3
2018-03-31T02:32:29.715Z,15.33
2018-03-31T02:33:39.556Z,15.27
2018-03-31T02:34:49.373Z,15.35
2018-03-31T02:35:59.185Z,15.35
2018-03-31T02:37:09.272Z,15.37
2018-03-31T02:38:19.410Z,15.33
2018-03-31T02:39:29.510Z,15.41
2018-03-31T02:40:39.580Z,15.43
2018-03-31T02:41:49.128Z,15.43
2018-03-31T02:42:59.198Z,15.44
2018-03-31T02:44:08.794Z,15.49
2018-03-31T02:45:18.611Z,15.43
2018-03-31T02:46:28.434Z,15.47
2018-03-31T02:47:38.509Z,15.43
2018-03-31T02:48:48.589Z,15.49
2018-03-31T02:49:58.409Z,15.62
2018-03-31T02:51:08.507Z,15.52
2018-03-31T02:52:18.309Z,15.6
2018-03-31T02:53:28.397Z,15.53
2018-03-31T02:54:38.205Z,15.59
2018-03-31T02:55:48.276Z,15.59
2018-03-31T02:56:58.174Z,15.55
2018-03-31T02:58:07.730Z,15.59
2018-03-31T02:59:17.310Z,15.65
2018-03-31T03:00:27.120Z,15.62
2018-03-31T03:01:37.313Z,15.55
2018-03-31T03:02:47.124Z,15.56
2018-03-31T03:03:57.222Z,15.56
2018-03-31T03:36:10.144Z,13.29
2018-03-31T03:37:20.209Z,13.21
2018-03-31T03:38:30.274Z,13.19
2018-03-31T03:39:40.324Z,13.27
2018-03-31T03:40:50.384Z,13.39
2018-03-31T03:42:00.245Z,13.47
2018-03-31T03:43:10.312Z,13.57
2018-03-31T03:44:20.114Z,13.58
2018-03-31T03:45:30.182Z,13.83
2018-03-31T03:46:39.994Z,13.91
2018-03-31T03:47:49.861Z,14.03
2018-03-31T03:48:59.452Z,14.15
2018-03-31T03:50:09.533Z,14.3
2018-03-31T03:51:19.346Z,14.51
2018-03-31T03:52:29.425Z,14.57
2018-03-31T03:53:39.534Z,14.66
2018-03-31T03:54:49.607Z,14.83
2018-03-31T03:55:59.419Z,14.93
2018-03-31T03:57:08.963Z,14.98
2018-03-31T03:58:19.048Z,15.05
2018-03-31T03:59:28.903Z,15.13
2018-03-31T04:00:38.715Z,15.23
2018-03-31T04:01:48.782Z,15.3
2018-03-31T04:02:58.575Z,15.34
2018-03-31T04:04:07.857Z,15.31
2018-03-31T04:05:17.646Z,15.3
2018-03-31T04:06:27.714Z,15.44
2018-03-31T04:07:37.247Z,15.45
2018-03-31T04:08:47.315Z,15.47
2018-03-31T04:09:57.138Z,15.47
2018-03-31T04:11:06.950Z,15.55
2018-03-31T04:12:16.747Z,15.51
2018-03-31T04:13:26.824Z,15.52
2018-03-31T04:14:36.885Z,15.47
2018-03-31T04:15:46.932Z,15.52
2018-03-31T04:16:56.784Z,15.58
2018-03-31T04:18:06.577Z,15.49
2018-03-31T04:19:16.377Z,15.38
2018-03-31T04:20:26.452Z,15.45
2018-03-31T04:21:36.516Z,15.44
2018-03-31T04:22:46.629Z,15.44
2018-03-31T04:23:56.722Z,15.43
2018-03-31T04:25:06.788Z,15.43
2018-03-31T04:26:16.852Z,15.34
2018-03-31T04:27:26.388Z,15.33
2018-03-31T04:28:35.928Z,15.31
2018-03-31T04:29:45.737Z,15.27
2018-03-31T04:30:55.540Z,15.3
2018-03-31T04:32:05.342Z,15.33
2018-03-31T04:33:15.158Z,15.26
2018-03-31T04:34:25.229Z,15.3
2018-03-31T04:35:35.308Z,15.27
2018-03-31T04:36:45.385Z,15.2
2018-03-31T04:37:55.186Z,15.23
2018-03-31T04:39:04.730Z,15.22
2018-03-31T04:40:14.789Z,15.23
2018-03-31T04:41:24.594Z,15.23
2018-03-31T04:42:34.672Z,15.15
2018-03-31T04:43:44.744Z,15.13
2018-03-31T04:44:54.815Z,15.18
2018-03-31T04:46:04.880Z,15.18
2018-03-31T04:47:14.741Z,15.05
2018-03-31T04:48:24.870Z,15.15
2018-03-31T04:49:34.984Z,15.15
2018-03-31T04:50:44.785Z,15.1
2018-03-31T04:51:54.922Z,15.08
2018-03-31T04:53:04.478Z,15.01
2018-03-31T04:54:14.285Z,15.12
2018-03-31T04:55:23.822Z,15.12
2018-03-31T04:56:33.608Z,15.13
2018-03-31T04:57:43.676Z,15.01
2018-03-31T04:58:53.216Z,15.12
2018-03-31T05:00:03.337Z,15.1
2018-03-31T05:01:13.414Z,15.1
2018-03-31T05:02:23.228Z,15.13
2018-03-31T05:03:33.295Z,15.07
2018-03-31T05:04:43.362Z,15.13
2018-03-31T05:05:52.907Z,15.12
2018-03-31T05:07:02.714Z,15.15
2018-03-31T05:08:12.545Z,15.1
2018-03-31T05:09:22.664Z,15.13
2018-03-31T05:10:32.464Z,15.08
2018-03-31T05:11:42.286Z,15.12
2018-03-31T05:12:52.098Z,15.08
2018-03-31T05:14:02.173Z,15.15
2018-03-31T05:15:12.258Z,15.07
2018-03-31T05:16:22.341Z,15.13
2018-03-31T05:17:32.145Z,15.01
2018-03-31T05:18:41.944Z,15.04
2018-03-31T05:19:51.489Z,15.02
2018-03-31T05:21:01.341Z,14.98
2018-03-31T05:22:11.398Z,15.04
2018-03-31T05:23:21.501Z,15.1
2018-03-31T05:24:31.574Z,15.27
2018-03-31T05:25:41.632Z,15.33
2018-03-31T05:26:51.235Z,15.35
2018-03-31T05:28:01.041Z,15.34
2018-03-31T05:29:10.856Z,15.37
2018-03-31T05:30:20.915Z,15.35
2018-03-31T05:31:30.455Z,15.45
2018-03-31T05:32:40.042Z,15.41
2018-03-31T05:33:49.846Z,15.44
2018-03-31T05:34:59.658Z,15.49
2018-03-31T05:36:09.473Z,15.45
2018-03-31T05:37:19.292Z,15.45
2018-03-31T05:38:29.105Z,15.45
2018-03-31T05:39:38.383Z,15.44
2018-03-31T05:40:48.186Z,15.4
2018-03-31T05:41:58.016Z,15.62
2018-03-31T05:43:07.600Z,15.55
2018-03-31T05:44:17.445Z,15.63
2018-03-31T05:45:27.143Z,15.68
2018-03-31T05:46:36.974Z,15.77
2018-03-31T05:47:47.058Z,15.71
2018-03-31T05:48:56.943Z,15.78
2018-03-31T05:50:06.472Z,15.77
2018-03-31T05:51:16.012Z,15.92
2018-03-31T05:52:26.090Z,15.92
2018-03-31T05:53:36.165Z,16.06
2018-03-31T05:54:46.235Z,16.16
2018-03-31T05:55:56.078Z,16.27
2018-03-31T05:57:05.883Z,16.32
2018-03-31T05:58:15.731Z,16.36
2018-03-31T05:59:25.798Z,16.4
2018-03-31T06:00:35.071Z,16.33
2018-03-31T06:01:44.616Z,16.45
2018-03-31T06:02:54.681Z,16.59
2018-03-31T06:04:04.484Z,16.58
2018-03-31T06:05:14.295Z,16.63
2018-03-31T06:06:23.568Z,16.59
2018-03-31T06:07:33.695Z,16.57
2018-03-31T06:08:43.493Z,16.63
2018-03-31T06:09:53.282Z,16.66
2018-03-31T06:11:03.081Z,16.72
2018-03-31T06:12:13.159Z,16.7
2018-03-31T06:13:22.988Z,16.7
2018-03-31T06:14:33.079Z,16.84
2018-03-31T06:15:43.160Z,16.81
2018-03-31T06:16:52.718Z,16.88
2018-03-31T06:18:02.523Z,16.9
2018-03-31T06:19:12.658Z,16.97
2018-03-31T06:20:22.741Z,16.97
2018-03-31T06:21:32.554Z,17.13
2018-03-31T06:22:42.652Z,16.94
2018-03-31T06:23:52.729Z,17.02
2018-03-31T06:25:02.848Z,17.09
2018-03-31T06:26:12.662Z,17.15
2018-03-31T06:27:22.744Z,17.07
2018-03-31T06:28:32.557Z,17.24
2018-03-31T06:29:42.108Z,17.21
2018-03-31T06:30:52.181Z,17.31
2018-03-31T06:32:02.007Z,17.27
2018-03-31T06:33:11.834Z,17.43
2018-03-31T06:34:21.640Z,17.55
2018-03-31T06:35:30.932Z,17.69
2018-03-31T06:36:40.990Z,17.88
2018-03-31T06:37:51.082Z,18.06
2018-03-31T06:39:01.148Z,18.21
2018-03-31T06:40:10.961Z,18.41
2018-03-31T06:41:20.770Z,18.45
2018-03-31T06:42:30.044Z,18.53
2018-03-31T06:43:39.600Z,18.57
2018-03-31T06:44:49.662Z,18.54
2018-03-31T06:45:59.726Z,18.63
2018-03-31T06:47:09.264Z,18.6
2018-03-31T06:48:19.070Z,18.54
2018-03-31T06:49:29.186Z,18.45
2018-03-31T06:50:39.309Z,18.23
2018-03-31T06:51:49.126Z,18.14
2018-03-31T06:52:59.185Z,18.03
2018-03-31T06:54:09.275Z,17.86
2018-03-31T06:55:18.813Z,17.92
2018-03-31T06:56:28.359Z,17.74
2018-03-31T06:57:38.156Z,17.66
2018-03-31T06:58:47.956Z,17.63
2018-03-31T06:59:58.038Z,17.62
2018-03-31T07:01:08.111Z,17.66
2018-03-31T07:02:17.929Z,17.69
2018-03-31T07:03:27.995Z,17.68
2018-03-31T07:04:37.803Z,17.66
2018-03-31T07:05:47.347Z,17.57
2018-03-31T07:06:57.163Z,17.57
2018-03-31T07:08:06.440Z,17.52
2018-03-31T07:09:16.273Z,17.52
2018-03-31T07:10:26.359Z,17.62
2018-03-31T07:11:36.167Z,17.63
2018-03-31T07:12:46.240Z,17.62
2018-03-31T07:13:56.051Z,17.6
2018-03-31T07:15:06.132Z,17.74
2018-03-31T07:16:16.241Z,17.69
2018-03-31T07:17:26.360Z,17.77
2018-03-31T07:18:36.793Z,17.79
2018-03-31T07:19:46.879Z,17.81
2018-03-31T07:20:56.958Z,17.9
2018-03-31T07:22:07.066Z,17.94
2018-03-31T07:23:17.145Z,17.98
2018-03-31T07:24:26.954Z,17.99
2018-03-31T07:25:37.022Z,18.06
2018-03-31T07:26:46.578Z,18.11
2018-03-31T07:27:55.871Z,18.21
2018-03-31T07:29:05.432Z,18.21
2018-03-31T07:30:15.232Z,18.19
2018-03-31T07:31:24.510Z,18.2
2018-03-31T07:32:34.295Z,18.17
2018-03-31T07:33:44.369Z,18.2
2018-03-31T07:34:54.455Z,18.16
2018-03-31T07:36:04.287Z,18.14
2018-03-31T07:37:14.116Z,18.05
2018-03-31T07:38:24.193Z,18.06
2018-03-31T07:39:34.285Z,17.98
2018-03-31T07:40:44.182Z,18.01
2018-03-31T07:41:54.335Z,17.87
2018-03-31T07:43:04.406Z,17.96
2018-03-31T07:44:14.475Z,17.87
2018-03-31T07:45:24.574Z,17.81
2018-03-31T07:46:34.705Z,17.9
2018-03-31T07:47:44.524Z,17.83
2018-03-31T07:48:54.586Z,17.9
2018-03-31T07:50:04.388Z,17.87
2018-03-31T07:51:13.942Z,17.95
2018-03-31T07:52:24.019Z,17.96
2018-03-31T07:53:34.122Z,18.01
2018-03-31T07:54:44.201Z,17.99
2018-03-31T07:55:54.271Z,17.94
2018-03-31T07:57:04.341Z,18.08
2018-03-31T07:58:13.684Z,18.17
2018-03-31T07:59:23.490Z,18.24
2018-03-31T08:00:33.295Z,18.29
2018-03-31T08:01:43.133Z,18.45
2018-03-31T08:02:53.201Z,18.57
2018-03-31T08:04:03.291Z,18.76
2018-03-31T08:05:13.113Z,18.84
2018-03-31T08:06:23.195Z,18.86
2018-03-31T08:07:33.280Z,18.93
2018-03-31T08:08:43.106Z,18.9
2018-03-31T08:09:53.261Z,18.99
2018-03-31T08:11:03.541Z,18.99
2018-03-31T08:12:13.356Z,19
2018-03-31T08:13:23.159Z,19.1
2018-03-31T08:14:33.011Z,19.15
2018-03-31T08:15:42.870Z,19.09
2018-03-31T08:16:52.683Z,19.07
2018-03-31T08:18:02.795Z,19.23
2018-03-31T08:19:12.606Z,19.38
2018-03-31T08:20:22.439Z,19.4
2018-03-31T08:21:32.245Z,19.55
2018-03-31T08:22:42.057Z,19.57
2018-03-31T08:23:52.146Z,19.53
2018-03-31T08:25:02.219Z,19.68
2018-03-31T08:26:11.763Z,19.64
2018-03-31T08:27:21.575Z,19.78
2018-03-31T08:28:31.384Z,19.97
2018-03-31T08:29:40.934Z,20.16
2018-03-31T08:30:50.754Z,20.3
2018-03-31T08:32:00.582Z,20.57
2018-03-31T08:33:10.669Z,20.9
2018-03-31T08:34:20.753Z,21.21
2018-03-31T08:35:30.851Z,21.41
2018-03-31T08:36:40.904Z,21.58
2018-03-31T08:37:50.976Z,21.66
2018-03-31T08:39:00.538Z,21.71
2018-03-31T08:40:10.620Z,21.83
2018-03-31T08:41:20.692Z,21.83
2018-03-31T08:42:30.788Z,21.9
2018-03-31T08:43:40.864Z,21.97
2018-03-31T08:44:50.490Z,22
2018-03-31T08:46:00.591Z,22.02
2018-03-31T08:47:11.023Z,22.05
2018-03-31T08:48:21.464Z,22.12
2018-03-31T08:49:31.565Z,22.27
2018-03-31T08:50:41.691Z,22.26
2018-03-31T08:51:51.771Z,22.45
2018-03-31T08:53:01.856Z,22.57
2018-03-31T08:54:11.958Z,22.63
2018-03-31T08:55:22.033Z,22.66
2018-03-31T08:56:32.117Z,22.7
2018-03-31T08:57:42.188Z,22.69
2018-03-31T08:58:52.260Z,22.76
2018-03-31T09:00:02.354Z,22.73
2018-03-31T09:01:12.427Z,22.84
2018-03-31T09:02:22.527Z,22.89
2018-03-31T09:03:32.346Z,23.03
2018-03-31T09:04:42.434Z,23.14
2018-03-31T09:05:52.548Z,23.22
2018-03-31T09:07:02.651Z,23.4
2018-03-31T09:08:12.733Z,23.45
2018-03-31T09:09:22.635Z,23.56
2018-03-31T09:10:32.725Z,23.53
2018-03-31T09:11:42.799Z,23.56
2018-03-31T09:12:52.883Z,23.62
2018-03-31T09:14:02.966Z,23.81
2018-03-31T09:15:13.047Z,23.84
2018-03-31T09:16:22.607Z,23.92
2018-03-31T09:17:32.429Z,24.07
2018-03-31T09:18:42.244Z,24.04
2018-03-31T09:19:52.362Z,24.09
2018-03-31T09:21:02.195Z,24.12
2018-03-31T09:22:12.037Z,24.17
2018-03-31T09:23:21.599Z,24.19
2018-03-31T09:24:31.400Z,24.08
2018-03-31T09:25:41.306Z,24.11
2018-03-31T09:26:51.113Z,24.18
2018-03-31T09:28:00.940Z,24.19
2018-03-31T09:29:11.032Z,24.15
2018-03-31T09:30:20.839Z,24.17
2018-03-31T09:31:30.919Z,24.18
2018-03-31T09:32:40.487Z,24.19
2018-03-31T09:33:50.569Z,24.21
2018-03-31T09:35:00.653Z,24.26
2018-03-31T09:36:10.747Z,24.32
2018-03-31T09:37:20.544Z,24.3
2018-03-31T09:38:30.635Z,24.32
2018-03-31T09:39:40.187Z,24.36
2018-03-31T09:40:50.000Z,24.46
2018-03-31T09:41:59.559Z,24.42
2018-03-31T09:43:09.404Z,24.44
2018-03-31T09:44:19.245Z,24.49
2018-03-31T09:45:29.092Z,24.34
2018-03-31T09:46:39.320Z,24.32
2018-03-31T09:47:49.730Z,24.24
2018-03-31T09:48:59.592Z,24.18
2018-03-31T09:50:09.429Z,24.18
2018-03-31T09:51:19.507Z,24.03
2018-03-31T09:52:29.651Z,24.03
2018-03-31T09:53:39.747Z,24.03
2018-03-31T09:54:49.905Z,23.96
2018-03-31T09:55:59.985Z,23.94
2018-03-31T09:57:10.160Z,24.03
2018-03-31T09:58:19.984Z,24
2018-03-31T09:59:29.799Z,24.09
2018-03-31T10:00:39.354Z,24.11
2018-03-31T10:01:49.435Z,24.11
2018-03-31T10:02:59.517Z,24.18
2018-03-31T10:04:09.352Z,24.29
2018-03-31T10:05:19.159Z,24.32
2018-03-31T10:06:28.977Z,24.26
2018-03-31T10:07:38.814Z,24.21
2018-03-31T10:08:48.636Z,24.19
2018-03-31T10:09:58.187Z,24.27
2018-03-31T10:11:07.996Z,24.36
2018-03-31T10:12:17.868Z,24.32
2018-03-31T10:13:27.961Z,24.26
2018-03-31T10:14:37.785Z,24.32
2018-03-31T10:15:47.868Z,24.32
2018-03-31T10:16:57.953Z,24.22
2018-03-31T10:18:07.820Z,24.21
2018-03-31T10:19:17.651Z,24.19
2018-03-31T10:20:27.450Z,24.19
2018-03-31T10:21:37.274Z,24.32
2018-03-31T10:22:46.563Z,24.27
2018-03-31T10:23:55.875Z,24.33
2018-03-31T10:25:05.982Z,24.32
2018-03-31T10:26:15.806Z,24.33
2018-03-31T10:27:25.903Z,24.33
2018-03-31T10:28:35.978Z,24.27
2018-03-31T10:29:46.124Z,24.32
2018-03-31T10:30:55.940Z,24.26
2018-03-31T10:32:06.016Z,24.14
2018-03-31T10:33:15.846Z,23.99
2018-03-31T10:34:25.676Z,23.89
2018-03-31T10:35:35.503Z,23.72
2018-03-31T10:36:45.337Z,23.64
2018-03-31T10:37:54.913Z,23.71
2018-03-31T10:39:05.003Z,23.63
2018-03-31T10:40:15.094Z,23.75
2018-03-31T10:41:24.655Z,23.67
2018-03-31T10:42:34.474Z,23.78
2018-03-31T10:43:44.377Z,23.81
2018-03-31T10:44:54.190Z,23.81
2018-03-31T10:46:03.749Z,23.93
2018-03-31T10:47:13.863Z,23.89
2018-03-31T10:48:23.675Z,23.87
2018-03-31T10:49:33.519Z,23.85
2018-03-31T10:50:43.093Z,23.78
2018-03-31T10:51:52.647Z,23.7
2018-03-31T10:53:02.468Z,23.64
2018-03-31T10:54:12.541Z,23.64
2018-03-31T10:55:22.620Z,23.63
2018-03-31T10:56:32.709Z,23.48
2018-03-31T10:57:42.519Z,23.44
2018-03-31T10:58:52.614Z,23.41
2018-03-31T11:00:02.713Z,23.41
2018-03-31T11:01:12.549Z,23.34
2018-03-31T11:02:22.361Z,23.28
2018-03-31T11:03:32.453Z,23.29
2018-03-31T11:04:42.102Z,23.37
2018-03-31T11:05:52.251Z,23.48
2018-03-31T11:07:02.064Z,23.55
2018-03-31T11:08:12.162Z,23.44
2018-03-31T11:09:21.703Z,23.38
2018-03-31T11:10:31.551Z,23.4
2018-03-31T11:11:41.649Z,23.34
2018-03-31T11:12:51.219Z,23.25
2018-03-31T11:14:01.503Z,23.24
2018-03-31T11:15:11.604Z,23.21
2018-03-31T11:16:21.681Z,23.12
2018-03-31T11:17:31.533Z,22.94
2018-03-31T11:18:41.349Z,22.88
2018-03-31T11:19:51.433Z,22.73
2018-03-31T11:21:01.261Z,22.69
2018-03-31T11:22:11.182Z,22.54
2018-03-31T11:23:20.998Z,22.38
2018-03-31T11:24:30.829Z,22.33
2018-03-31T11:25:40.925Z,22.24
2018-03-31T11:26:50.743Z,22.2
2018-03-31T11:28:00.554Z,22.16
2018-03-31T11:29:09.838Z,22.23
2018-03-31T11:30:19.659Z,22.24
2018-03-31T11:31:29.206Z,22.2
2018-03-31T11:32:39.302Z,22.12
2018-03-31T11:33:48.858Z,22.11
2018-03-31T11:34:58.670Z,22.18
2018-03-31T11:36:08.751Z,22.24
2018-03-31T11:37:18.564Z,22.29
2018-03-31T11:38:28.395Z,22.33
2018-03-31T11:39:38.206Z,22.3
2018-03-31T11:40:48.280Z,22.27
2018-03-31T11:41:58.090Z,22.15
2018-03-31T11:43:07.916Z,22.08
2018-03-31T11:44:18.062Z,21.94
2018-03-31T11:45:27.690Z,21.92
2018-03-31T11:46:37.768Z,21.85
2018-03-31T11:47:47.863Z,21.67
2018-03-31T11:48:58.067Z,21.61
2018-03-31T11:50:07.989Z,21.46
2018-03-31T11:51:17.865Z,21.23
2018-03-31T11:52:27.693Z,21.01
2018-03-31T11:53:37.243Z,20.85
2018-03-31T11:54:47.339Z,20.79
2018-03-31T11:55:57.429Z,20.76
2018-03-31T11:57:06.978Z,20.74
2018-03-31T11:58:16.811Z,20.74
2018-03-31T11:59:26.615Z,20.82
2018-03-31T12:00:36.185Z,20.81
2018-03-31T12:01:46.010Z,20.91
2018-03-31T12:02:55.548Z,21
2018-03-31T12:04:05.150Z,21.04
2018-03-31T12:05:14.952Z,21.16
2018-03-31T12:06:24.758Z,21.16
2018-03-31T12:07:34.850Z,21.27
2018-03-31T12:08:44.129Z,21.21
2018-03-31T12:09:53.948Z,21.19
2018-03-31T12:11:04.048Z,21.22
2018-03-31T12:12:13.858Z,21.04
2018-03-31T12:13:23.937Z,21.13
2018-03-31T12:14:34.010Z,20.98
2018-03-31T12:15:43.285Z,20.97
2018-03-31T12:16:53.366Z,20.88
2018-03-31T12:18:03.194Z,20.82
2018-03-31T12:19:13.000Z,20.79
2018-03-31T12:20:22.804Z,20.67
2018-03-31T12:21:32.884Z,20.61
2018-03-31T12:22:42.971Z,20.68
2018-03-31T12:23:52.516Z,20.71
2018-03-31T12:25:02.581Z,20.64
2018-03-31T12:26:12.381Z,20.58
2018-03-31T12:27:21.992Z,20.64
2018-03-31T12:28:31.806Z,20.74
2018-03-31T12:29:41.386Z,20.75
2018-03-31T12:30:51.479Z,20.58
2018-03-31T12:32:01.296Z,20.58
2018-03-31T12:33:11.107Z,20.63
2018-03-31T12:34:20.930Z,20.67
2018-03-31T12:35:30.734Z,20.61
2018-03-31T12:36:40.083Z,20.6
2018-03-31T12:37:50.375Z,20.58
2018-03-31T12:38:59.964Z,20.57
2018-03-31T12:40:10.048Z,20.49
2018-03-31T12:41:19.857Z,20.49
2018-03-31T12:42:29.678Z,20.42
2018-03-31T12:43:39.757Z,20.41
2018-03-31T12:44:50.084Z,20.38
2018-03-31T12:45:59.715Z,20.35
2018-03-31T12:47:09.547Z,20.38
2018-03-31T12:48:19.372Z,20.23
2018-03-31T12:49:29.205Z,20.27
2018-03-31T12:50:39.387Z,20.2
2018-03-31T12:51:49.226Z,20.1
2018-03-31T12:52:59.290Z,20.12
2018-03-31T12:54:09.363Z,20.07
2018-03-31T12:55:19.176Z,20.05
2018-03-31T12:56:29.255Z,20
2018-03-31T12:57:39.353Z,20.01
2018-03-31T12:58:49.431Z,20.04
2018-03-31T12:59:59.239Z,20.02
2018-03-31T13:01:09.319Z,19.92
2018-03-31T13:02:19.200Z,19.95
2018-03-31T13:03:29.007Z,19.95
2018-03-31T13:04:38.532Z,19.93
2018-03-31T13:05:48.351Z,20
2018-03-31T13:06:58.173Z,19.98
2018-03-31T13:08:07.792Z,19.93
2018-03-31T13:09:17.617Z,19.97
2018-03-31T13:10:27.428Z,19.95
2018-03-31T13:11:36.714Z,19.95
2018-03-31T13:12:46.536Z,20
2018-03-31T13:13:56.629Z,19.89
2018-03-31T13:15:06.434Z,19.97
2018-03-31T13:16:16.583Z,19.85
2018-03-31T13:17:26.492Z,19.79
2018-03-31T13:18:36.042Z,19.74
2018-03-31T13:19:45.859Z,19.7
2018-03-31T13:20:55.946Z,19.67
2018-03-31T13:22:06.046Z,19.7
2018-03-31T13:23:16.122Z,19.75
2018-03-31T13:24:26.210Z,19.74
2018-03-31T13:25:36.038Z,19.74
2018-03-31T13:26:45.848Z,19.78
2018-03-31T13:27:55.688Z,19.72
2018-03-31T13:29:05.776Z,19.63
2018-03-31T13:30:15.854Z,19.64
2018-03-31T13:31:25.672Z,19.61
2018-03-31T13:32:35.505Z,19.64
2018-03-31T13:33:45.583Z,19.79
2018-03-31T13:34:55.673Z,19.74
2018-03-31T13:36:05.841Z,19.85
2018-03-31T13:37:15.671Z,19.97
2018-03-31T13:38:25.496Z,19.92
2018-03-31T13:39:35.332Z,19.8
2018-03-31T13:40:45.174Z,19.92
2018-03-31T13:41:55.281Z,19.82
2018-03-31T13:43:05.114Z,19.79
2018-03-31T13:44:15.197Z,19.64
2018-03-31T13:45:25.293Z,19.63
2018-03-31T13:46:35.125Z,19.5
2018-03-31T13:47:45.233Z,19.5
2018-03-31T13:48:54.848Z,19.57
2018-03-31T13:50:05.148Z,19.45
2018-03-31T13:51:15.309Z,19.35
2018-03-31T13:52:25.148Z,19.37
2018-03-31T13:53:34.981Z,19.35
2018-03-31T13:54:44.794Z,19.32
2018-03-31T13:55:54.600Z,19.35
2018-03-31T13:57:04.417Z,19.27
2018-03-31T13:58:14.232Z,19.19
2018-03-31T13:59:24.296Z,19.07
2018-03-31T14:00:34.112Z,18.94
2018-03-31T14:01:43.961Z,19.02
2018-03-31T14:02:53.758Z,18.93
2018-03-31T14:04:03.818Z,18.9
2018-03-31T14:05:13.396Z,18.96
2018-03-31T14:06:23.241Z,18.84
2018-03-31T14:07:32.792Z,18.84
2018-03-31T14:08:42.885Z,18.81
2018-03-31T14:09:52.960Z,18.59
2018-03-31T14:11:02.784Z,18.51
2018-03-31T14:12:12.612Z,18.44
2018-03-31T14:13:22.443Z,18.31
2018-03-31T14:14:32.262Z,18.17
2018-03-31T14:15:42.516Z,18.27
2018-03-31T14:16:52.605Z,18.21
2018-03-31T14:18:02.742Z,18.27
2018-03-31T14:19:12.594Z,18.2
2018-03-31T14:20:22.669Z,18.16
2018-03-31T14:21:32.755Z,18.16
2018-03-31T14:22:42.602Z,18.16
2018-03-31T14:23:52.705Z,18.2
2018-03-31T14:25:02.788Z,18.16
2018-03-31T14:26:12.364Z,18.34
2018-03-31T14:27:22.165Z,18.42
2018-03-31T14:28:32.008Z,18.54
2018-03-31T14:29:41.833Z,18.66
2018-03-31T14:30:51.650Z,18.81
2018-03-31T14:32:01.476Z,18.86
2018-03-31T14:33:11.339Z,18.91
2018-03-31T14:34:20.910Z,18.84
2018-03-31T14:35:30.469Z,18.79
2018-03-31T14:36:40.552Z,18.68
2018-03-31T14:37:50.386Z,18.49
2018-03-31T14:39:00.198Z,18.34
2018-03-31T14:40:10.020Z,18.21
2018-03-31T14:41:20.023Z,18.23
2018-03-31T14:42:30.105Z,18.08
2018-03-31T14:43:40.202Z,18.02
2018-03-31T14:44:50.291Z,17.88
2018-03-31T14:45:59.851Z,17.96
2018-03-31T14:47:09.882Z,17.95
2018-03-31T14:48:19.717Z,17.86
2018-03-31T14:49:29.528Z,17.83
2018-03-31T14:50:39.609Z,17.69
2018-03-31T14:51:49.157Z,17.71
2018-03-31T14:52:59.236Z,17.63
2018-03-31T14:54:08.808Z,17.55
2018-03-31T14:55:18.358Z,17.55
2018-03-31T14:56:28.184Z,17.5
2018-03-31T14:57:37.730Z,17.43
2018-03-31T14:58:47.812Z,17.4
2018-03-31T14:59:57.621Z,17.4
2018-03-31T15:01:07.185Z,17.4
2018-03-31T15:02:17.005Z,17.32
2018-03-31T15:03:27.112Z,17.32
2018-03-31T15:04:37.189Z,17.25
2018-03-31T15:05:46.992Z,17.24
2018-03-31T15:06:57.075Z,17.2
2018-03-31T15:08:06.909Z,17.22
2018-03-31T15:09:16.467Z,17.17
2018-03-31T15:10:26.077Z,17.28
2018-03-31T15:11:36.033Z,17.2
2018-03-31T15:12:46.091Z,17.17
2018-03-31T15:13:56.179Z,17.22
2018-03-31T15:15:06.256Z,17.24
2018-03-31T15:16:16.156Z,17.15
2018-03-31T15:17:26.108Z,17.22
2018-03-31T15:18:36.203Z,17.28
2018-03-31T15:19:45.760Z,17.18
2018-03-31T15:20:55.585Z,17.15
2018-03-31T15:22:05.421Z,17.22
2018-03-31T15:23:15.244Z,17.32
2018-03-31T15:24:25.055Z,17.18
2018-03-31T15:25:35.130Z,17.15
2018-03-31T15:26:45.205Z,17.18
2018-03-31T15:27:55.353Z,17.15
2018-03-31T15:29:05.415Z,17.21
2018-03-31T15:30:15.489Z,17.15
2018-03-31T15:31:25.566Z,17.12
2018-03-31T15:32:35.677Z,17.17
2018-03-31T15:33:45.756Z,17.1
2018-03-31T15:34:55.697Z,17.06